createdAt,value
2018-04-22T00:01:54.003Z,87.45
2018-04-22T00:04:22.604Z,87.82
2018-04-22T00:06:51.325Z,88.23
2018-04-22T00:09:20.068Z,87.27
2018-04-22T00:11:48.671Z,86.74
2018-04-22T00:14:17.188Z,86.57
2018-04-22T00:16:46.036Z,86.82
2018-04-22T00:19:14.711Z,87.20
2018-04-22T00:21:43.326Z,88.60
2018-04-22T00:24:12.089Z,87.85
2018-04-22T00:26:40.796Z,87.59
2018-04-22T00:29:09.272Z,87.06
2018-04-22T00:31:37.872Z,88.12
2018-04-22T00:34:06.383Z,88.34
2018-04-22T00:36:34.955Z,88.99
2018-04-22T00:39:03.824Z,88.90
2018-04-22T00:41:32.692Z,88.68
2018-04-22T00:44:01.187Z,88.69
2018-04-22T00:46:29.707Z,88.29
2018-04-22T00:48:58.499Z,88.84
2018-04-22T00:51:27.102Z,88.74
2018-04-22T00:54:04.523Z,89.00
2018-04-22T00:56:33.283Z,88.42
2018-04-22T00:59:01.847Z,88.87
2018-04-22T01:01:30.775Z,88.83
2018-04-22T01:03:59.615Z,89.26
2018-04-22T01:06:28.363Z,89.25
2018-04-22T01:08:56.847Z,88.71
2018-04-22T01:11:25.735Z,89.45
2018-04-22T01:13:54.437Z,89.82
2018-04-22T01:16:23.126Z,89.75
2018-04-22T01:18:51.743Z,90.06
2018-04-22T01:21:20.576Z,90.26
2018-04-22T01:23:49.274Z,90.00
2018-04-22T01:26:18.358Z,90.04
2018-04-22T01:28:47.236Z,90.10
2018-04-22T01:31:15.932Z,90.15
2018-04-22T01:33:44.600Z,89.74
2018-04-22T01:36:13.146Z,89.87
2018-04-22T01:38:41.775Z,89.97
2018-04-22T01:41:10.483Z,89.96
2018-04-22T01:43:39.016Z,90.33
2018-04-22T01:46:07.870Z,89.95
2018-04-22T01:48:36.383Z,90.28
2018-04-22T01:51:05.030Z,90.94
2018-04-22T01:53:33.716Z,90.94
2018-04-22T01:56:02.436Z,90.44
2018-04-22T01:58:31.056Z,90.93
2018-04-22T02:00:59.752Z,90.53
2018-04-22T02:03:28.268Z,90.44
2018-04-22T02:05:57.418Z,90.45
2018-04-22T02:08:25.968Z,90.34
2018-04-22T02:10:54.700Z,90.39
2018-04-22T02:13:23.343Z,90.43
2018-04-22T02:15:52.086Z,90.87
2018-04-22T02:18:20.714Z,90.69
2018-04-22T02:20:49.291Z,91.35
2018-04-22T02:23:18.088Z,90.46
2018-04-22T02:25:46.813Z,90.88
2018-04-22T02:28:15.339Z,91.36
2018-04-22T02:30:44.427Z,90.97
2018-04-22T02:33:12.982Z,91.18
2018-04-22T02:35:41.690Z,91.78
2018-04-22T02:38:10.196Z,91.68
2018-04-22T02:40:39.006Z,91.59
2018-04-22T02:43:07.780Z,90.88
2018-04-22T02:45:36.327Z,91.49
2018-04-22T02:48:05.139Z,92.31
2018-04-22T02:50:40.275Z,91.98
2018-04-22T02:53:08.844Z,91.38
2018-04-22T02:55:38.005Z,91.66
2018-04-22T02:58:06.524Z,92.63
2018-04-22T03:00:35.069Z,92.68
2018-04-22T03:03:03.616Z,92.21
2018-04-22T03:05:32.548Z,92.68
2018-04-22T03:08:01.062Z,92.55
2018-04-22T03:10:29.703Z,92.80
2018-04-22T03:12:58.208Z,92.46
2018-04-22T03:15:26.899Z,92.91
2018-04-22T03:17:55.641Z,92.55
2018-04-22T03:20:24.256Z,92.62
2018-04-22T03:22:52.928Z,92.89
2018-04-22T03:25:21.504Z,92.14
2018-04-22T03:27:50.072Z,91.76
2018-04-22T03:30:18.588Z,91.70
2018-04-22T03:32:47.131Z,92.05
2018-04-22T03:35:15.660Z,92.31
2018-04-22T03:37:44.207Z,91.98
2018-04-22T03:40:12.717Z,91.70
2018-04-22T03:42:41.373Z,92.33
2018-04-22T03:45:09.961Z,92.82
2018-04-22T03:47:38.837Z,93.22
2018-04-22T03:50:07.393Z,93.13
2018-04-22T03:52:36.405Z,92.26
2018-04-22T03:55:05.007Z,92.71
2018-04-22T03:57:34.194Z,92.54
2018-04-22T04:03:05.226Z,92.49
2018-04-22T04:05:33.604Z,92.23
2018-04-22T04:08:02.246Z,92.41
2018-04-22T04:10:30.951Z,92.82
2018-04-22T04:12:59.263Z,92.19
2018-04-22T04:15:27.679Z,92.07
2018-04-22T04:18:02.652Z,92.05
2018-04-22T04:22:45.177Z,91.80
2018-04-22T04:26:33.332Z,92.23
2018-04-22T04:29:01.627Z,92.19
2018-04-22T04:31:29.981Z,92.32
2018-04-22T04:33:58.329Z,92.78
2018-04-22T04:36:26.750Z,92.34
2018-04-22T04:38:55.099Z,92.43
2018-04-22T04:41:23.416Z,92.21
2018-04-22T04:43:51.705Z,91.74
2018-04-22T04:46:20.052Z,91.73
2018-04-22T04:48:48.367Z,91.62
2018-04-22T04:51:16.687Z,91.31
2018-04-22T04:53:45.027Z,90.48
2018-04-22T04:56:13.361Z,90.71
2018-04-22T04:58:41.744Z,89.72
2018-04-22T05:01:10.064Z,89.57
2018-04-22T05:03:38.582Z,88.83
2018-04-22T05:06:06.911Z,88.22
2018-04-22T05:08:35.255Z,87.09
2018-04-22T05:11:03.617Z,86.13
2018-04-22T05:13:31.932Z,84.22
2018-04-22T05:16:00.407Z,81.98
2018-04-22T05:18:28.731Z,81.72
2018-04-22T05:20:57.061Z,80.20
2018-04-22T05:23:25.399Z,78.20
2018-04-22T05:25:54.410Z,78.85
2018-04-22T05:28:22.720Z,77.52
2018-04-22T05:30:51.073Z,77.36
2018-04-22T05:33:19.533Z,75.86
2018-04-22T05:35:47.852Z,75.62
2018-04-22T05:38:16.590Z,74.57
2018-04-22T05:40:44.967Z,73.12
2018-04-22T05:43:13.472Z,73.23
2018-04-22T05:45:41.805Z,71.16
2018-04-22T05:48:10.195Z,70.11
2018-04-22T05:50:38.607Z,70.50
2018-04-22T05:53:06.920Z,69.61
2018-04-22T05:55:35.250Z,69.73
2018-04-22T05:58:03.537Z,68.31
2018-04-22T06:00:31.974Z,69.01
2018-04-22T06:03:00.313Z,68.48
2018-04-22T06:05:28.772Z,68.21
2018-04-22T06:07:57.368Z,67.05
2018-04-22T06:10:25.687Z,68.49
2018-04-22T06:12:53.976Z,67.92
2018-04-22T06:15:22.343Z,66.20
2018-04-22T06:17:50.661Z,65.71
2018-04-22T06:20:19.039Z,65.65
2018-04-22T06:22:47.354Z,66.26
2018-04-22T06:25:15.683Z,65.20
2018-04-22T06:27:44.316Z,64.66
2018-04-22T06:30:12.636Z,65.05
2018-04-22T06:32:40.936Z,65.33
2018-04-22T06:35:09.425Z,64.47
2018-04-22T06:37:37.757Z,64.71
2018-04-22T06:40:06.124Z,65.02
2018-04-22T06:42:34.531Z,64.38
2018-04-22T06:45:02.951Z,63.95
2018-04-22T06:47:31.296Z,63.86
2018-04-22T06:49:59.607Z,64.02
2018-04-22T06:52:28.064Z,63.20
2018-04-22T06:54:56.619Z,63.58
2018-04-22T06:57:25.008Z,63.63
2018-04-22T06:59:53.309Z,61.96
2018-04-22T07:02:21.675Z,61.47
2018-04-22T07:04:50.083Z,62.25
2018-04-22T07:07:18.581Z,61.28
2018-04-22T07:09:47.003Z,61.03
2018-04-22T07:12:15.370Z,61.20
2018-04-22T07:14:43.956Z,59.28
2018-04-22T07:17:12.407Z,60.29
2018-04-22T07:19:40.731Z,56.46
2018-04-22T07:22:10.619Z,56.50
2018-04-22T07:24:41.600Z,56.23
2018-04-22T07:27:12.874Z,56.25
2018-04-22T07:29:41.268Z,56.75
2018-04-22T07:32:09.733Z,56.02
2018-04-22T07:34:38.119Z,55.34
2018-04-22T07:37:06.548Z,56.04
2018-04-22T07:39:34.948Z,55.02
2018-04-22T07:42:03.699Z,55.16
2018-04-22T07:44:32.170Z,55.49
2018-04-22T07:47:00.626Z,55.49
2018-04-22T07:49:29.167Z,54.94
2018-04-22T07:51:57.756Z,54.92
2018-04-22T07:54:26.119Z,55.86
2018-04-22T07:56:54.856Z,55.95
2018-04-22T07:59:23.187Z,55.72
2018-04-22T08:01:51.671Z,55.93
2018-04-22T08:04:19.980Z,55.63
2018-04-22T08:06:48.456Z,55.43
2018-04-22T08:09:16.795Z,55.02
2018-04-22T08:11:45.136Z,55.30
2018-04-22T08:14:13.679Z,55.77
2018-04-22T08:16:42.052Z,55.60
2018-04-22T08:19:10.407Z,55.69
2018-04-22T08:21:39.030Z,55.55
2018-04-22T08:24:07.471Z,54.63
2018-04-22T08:26:36.505Z,54.45
2018-04-22T08:29:04.900Z,54.44
2018-04-22T08:31:33.275Z,53.06
2018-04-22T08:34:01.708Z,53.65
2018-04-22T08:36:30.207Z,53.54
2018-04-22T08:38:58.638Z,53.24
2018-04-22T08:41:27.047Z,54.66
2018-04-22T08:43:55.514Z,52.60
2018-04-22T08:46:24.217Z,51.20
2018-04-22T08:48:52.527Z,50.54
2018-04-22T08:51:20.888Z,51.14
2018-04-22T08:53:49.744Z,49.75
2018-04-22T08:56:18.807Z,50.33
2018-04-22T08:58:47.660Z,50.26
2018-04-22T09:01:15.965Z,48.88
2018-04-22T09:03:44.598Z,49.32
2018-04-22T09:06:13.676Z,51.32
2018-04-22T09:08:42.668Z,49.77
2018-04-22T09:11:11.512Z,49.55
2018-04-22T09:13:39.853Z,48.89
2018-04-22T09:16:08.212Z,48.50
2018-04-22T09:18:38.743Z,48.21
2018-04-22T09:21:07.369Z,46.88
2018-04-22T09:23:35.781Z,47.42
2018-04-22T09:26:04.383Z,47.74
2018-04-22T09:28:32.748Z,46.71
2018-04-22T09:31:01.466Z,46.74
2018-04-22T09:33:30.035Z,46.28
2018-04-22T09:36:00.647Z,44.50
2018-04-22T09:38:28.998Z,45.77
2018-04-22T09:40:57.317Z,45.00
2018-04-22T09:43:25.613Z,45.83
2018-04-22T09:45:53.918Z,45.21
2018-04-22T09:48:22.248Z,45.42
2018-04-22T09:50:50.559Z,44.84
2018-04-22T09:53:20.340Z,46.07
2018-04-22T09:55:48.862Z,46.59
2018-04-22T09:58:17.172Z,44.87
2018-04-22T10:00:47.099Z,45.42
2018-04-22T10:03:16.484Z,44.57
2018-04-22T10:05:48.976Z,43.96
2018-04-22T10:08:17.479Z,43.75
2018-04-22T10:10:45.870Z,44.76
2018-04-22T10:13:14.202Z,44.88
2018-04-22T10:15:42.796Z,43.32
2018-04-22T10:18:11.075Z,42.40
2018-04-22T10:20:39.502Z,40.27
2018-04-22T10:23:08.448Z,40.09
2018-04-22T10:25:37.165Z,39.49
2018-04-22T10:28:05.705Z,39.64
2018-04-22T10:30:34.103Z,40.07
2018-04-22T10:33:02.464Z,38.85
2018-04-22T10:35:30.804Z,39.59
2018-04-22T10:37:59.124Z,38.70
2018-04-22T10:40:27.438Z,38.62
2018-04-22T10:42:56.016Z,37.71
2018-04-22T10:45:24.843Z,35.69
2018-04-22T10:47:53.219Z,35.91
2018-04-22T10:50:21.550Z,35.31
2018-04-22T10:52:49.933Z,34.55
2018-04-22T10:55:18.341Z,35.14
2018-04-22T10:57:46.746Z,36.29
2018-04-22T11:00:15.146Z,33.69
2018-04-22T11:02:43.980Z,34.64
2018-04-22T11:05:12.331Z,32.52
2018-04-22T11:07:40.658Z,33.91
2018-04-22T11:10:09.979Z,34.32
2018-04-22T11:12:38.536Z,32.47
2018-04-22T11:15:06.908Z,31.28
2018-04-22T11:17:35.531Z,30.45
2018-04-22T11:20:03.908Z,31.77
2018-04-22T11:22:32.191Z,32.74
2018-04-22T11:25:00.494Z,32.54
2018-04-22T11:27:28.899Z,30.04
2018-04-22T11:29:57.253Z,31.07
2018-04-22T11:32:25.925Z,30.17
2018-04-22T11:34:54.447Z,29.86
2018-04-22T11:37:22.916Z,29.29
2018-04-22T11:39:51.217Z,28.64
2018-04-22T11:42:19.629Z,28.69
2018-04-22T11:44:47.954Z,29.77
2018-04-22T11:47:16.305Z,27.52
2018-04-22T11:49:45.771Z,28.50
2018-04-22T11:52:14.187Z,27.68
2018-04-22T11:54:42.614Z,28.01
2018-04-22T11:57:11.167Z,27.46
2018-04-22T11:59:39.581Z,28.84
2018-04-22T12:02:08.010Z,28.54
2018-04-22T12:04:36.383Z,29.56
2018-04-22T12:07:05.424Z,27.56
2018-04-22T12:09:33.707Z,26.80
2018-04-22T12:12:02.061Z,26.43
2018-04-22T12:14:30.407Z,28.71
2018-04-22T12:16:58.748Z,29.00
2018-04-22T12:19:27.048Z,28.85
2018-04-22T12:21:55.499Z,26.05
2018-04-22T12:24:26.633Z,24.95
2018-04-22T12:26:55.623Z,25.08
2018-04-22T12:29:24.012Z,27.25
2018-04-22T12:31:52.380Z,25.46
2018-04-22T12:34:20.948Z,24.88
2018-04-22T12:36:50.257Z,25.98
2018-04-22T12:39:18.625Z,25.61
2018-04-22T12:41:47.012Z,24.78
2018-04-22T12:44:15.332Z,25.16
2018-04-22T12:46:43.719Z,27.15
2018-04-22T12:49:12.067Z,25.64
2018-04-22T12:51:40.590Z,28.81
2018-04-22T12:54:08.952Z,27.11
2018-04-22T12:56:37.336Z,26.25
2018-04-22T12:59:05.771Z,23.31
2018-04-22T13:01:34.174Z,22.67
2018-04-22T13:04:02.514Z,24.11
2018-04-22T13:06:30.899Z,22.82
2018-04-22T13:08:59.217Z,22.67
2018-04-22T13:11:27.608Z,23.44
2018-04-22T13:13:55.954Z,22.13
2018-04-22T13:16:24.544Z,22.12
2018-04-22T13:18:53.001Z,22.50
2018-04-22T13:21:21.675Z,22.18
2018-04-22T13:23:50.006Z,22.45
2018-04-22T13:26:18.474Z,22.17
2018-04-22T13:28:46.882Z,22.37
2018-04-22T13:31:15.352Z,22.77
2018-04-22T13:33:43.986Z,22.62
2018-04-22T13:36:12.482Z,21.99
2018-04-22T13:38:40.820Z,22.73
2018-04-22T13:41:09.327Z,24.41
2018-04-22T13:43:37.638Z,22.70
2018-04-22T13:46:06.060Z,21.63
2018-04-22T13:48:34.447Z,23.47
2018-04-22T13:51:04.575Z,24.06
2018-04-22T13:53:33.329Z,23.08
2018-04-22T13:56:02.351Z,23.78
2018-04-22T13:58:30.620Z,22.45
2018-04-22T14:00:59.067Z,24.25
2018-04-22T14:03:28.037Z,23.54
2018-04-22T14:05:56.495Z,22.23
2018-04-22T14:08:24.867Z,23.79
2018-04-22T14:10:53.280Z,23.34
2018-04-22T14:13:21.688Z,22.84
2018-04-22T14:15:50.884Z,26.46
2018-04-22T14:18:19.234Z,28.34
2018-04-22T14:20:47.606Z,29.01
2018-04-22T14:23:15.958Z,27.27
2018-04-22T14:25:44.354Z,26.25
2018-04-22T14:28:12.685Z,24.56
2018-04-22T14:30:41.076Z,28.33
2018-04-22T14:33:09.376Z,30.55
2018-04-22T14:35:37.732Z,29.50
2018-04-22T14:38:06.043Z,31.09
2018-04-22T14:40:34.424Z,30.79
2018-04-22T14:43:02.821Z,30.31
2018-04-22T14:46:12.222Z,30.60
2018-04-22T14:48:49.470Z,33.34
2018-04-22T14:51:18.848Z,32.91
2018-04-22T14:53:47.335Z,32.36
2018-04-22T14:56:15.728Z,32.86
2018-04-22T14:58:44.266Z,33.39
2018-04-22T15:01:12.732Z,34.30
2018-04-22T15:03:41.029Z,33.55
2018-04-22T15:06:09.364Z,33.98
2018-04-22T15:08:37.727Z,33.92
2018-04-22T15:11:06.151Z,35.37
2018-04-22T15:13:34.499Z,35.36
2018-04-22T15:16:02.860Z,34.99
2018-04-22T15:18:31.176Z,35.97
2018-04-22T15:20:59.538Z,36.77
2018-04-22T15:23:28.724Z,36.85
2018-04-22T15:25:57.213Z,36.72
2018-04-22T15:28:25.540Z,37.67
2018-04-22T15:30:53.881Z,36.56
2018-04-22T15:33:22.183Z,38.08
2018-04-22T15:35:50.528Z,37.95
2018-04-22T15:38:18.943Z,37.26
2018-04-22T15:40:47.293Z,37.40
2018-04-22T15:43:15.781Z,37.74
2018-04-22T15:45:44.199Z,37.14
2018-04-22T15:48:12.561Z,38.12
2018-04-22T15:50:40.939Z,39.05
2018-04-22T15:53:09.236Z,37.94
2018-04-22T15:55:38.277Z,38.39
2018-04-22T15:58:06.945Z,37.72
2018-04-22T16:00:35.545Z,38.71
2018-04-22T16:03:04.291Z,37.76
2018-04-22T16:05:32.724Z,38.34
2018-04-22T16:08:01.095Z,38.59
2018-04-22T16:10:30.238Z,38.20
2018-04-22T16:12:58.547Z,37.86
2018-04-22T16:15:27.231Z,37.53
2018-04-22T16:17:55.772Z,38.96
2018-04-22T16:20:24.128Z,38.78
2018-04-22T16:22:52.411Z,40.33
2018-04-22T16:25:20.826Z,40.30
2018-04-22T16:27:49.117Z,40.35
2018-04-22T16:30:17.516Z,40.61
2018-04-22T16:32:46.207Z,39.67
2018-04-22T16:35:14.562Z,40.04
2018-04-22T16:37:42.852Z,40.98
2018-04-22T16:40:11.489Z,41.36
2018-04-22T16:42:40.644Z,40.40
2018-04-22T16:45:09.103Z,40.58
2018-04-22T16:47:37.528Z,42.05
2018-04-22T16:50:05.942Z,41.08
2018-04-22T16:52:34.289Z,40.76
2018-04-22T16:55:02.653Z,41.59
2018-04-22T16:58:34.136Z,42.34
2018-04-22T17:01:02.557Z,42.13
2018-04-22T17:03:30.879Z,42.26
2018-04-22T17:05:59.252Z,43.47
2018-04-22T17:08:27.622Z,44.50
2018-04-22T17:10:56.000Z,42.56
2018-04-22T17:13:24.276Z,43.61
2018-04-22T17:15:52.588Z,44.62
2018-04-22T17:18:20.864Z,51.90
2018-04-22T17:20:49.203Z,46.77
2018-04-22T17:23:17.477Z,44.16
2018-04-22T17:25:45.847Z,43.77
2018-04-22T17:28:14.161Z,43.95
2018-04-22T17:31:45.157Z,44.43
2018-04-22T17:34:13.549Z,44.57
2018-04-22T17:36:42.199Z,46.77
2018-04-22T17:39:10.515Z,45.91
2018-04-22T17:41:38.840Z,46.10
2018-04-22T17:44:07.124Z,46.41
2018-04-22T17:46:35.465Z,47.51
2018-04-22T17:49:03.740Z,47.60
2018-04-22T17:51:32.129Z,47.59
2018-04-22T17:54:00.575Z,47.93
2018-04-22T17:56:29.167Z,49.12
2018-04-22T17:58:57.457Z,48.09
2018-04-22T18:01:25.827Z,48.55
2018-04-22T18:03:54.279Z,48.95
2018-04-22T18:06:22.877Z,49.52
2018-04-22T18:08:57.950Z,50.33
2018-04-22T18:11:26.827Z,49.71
2018-04-22T18:13:55.095Z,48.85
2018-04-22T18:16:23.498Z,49.38
2018-04-22T18:18:51.937Z,49.43
2018-04-22T18:21:20.359Z,49.09
2018-04-22T18:26:23.223Z,49.83
2018-04-22T18:28:53.229Z,51.72
2018-04-22T18:31:21.938Z,50.77
2018-04-22T18:33:50.519Z,50.60
2018-04-22T18:36:19.011Z,50.45
2018-04-22T18:38:47.296Z,50.79
2018-04-22T18:41:15.767Z,50.83
2018-04-22T18:43:44.755Z,50.85
2018-04-22T18:46:13.463Z,50.61
2018-04-22T18:48:41.769Z,50.98
2018-04-22T18:51:10.095Z,51.64
2018-04-22T18:53:38.424Z,51.41
2018-04-22T18:56:07.157Z,53.26
2018-04-22T18:58:35.520Z,52.60
2018-04-22T19:01:03.892Z,52.00
2018-04-22T19:03:32.375Z,52.07
2018-04-22T19:06:00.757Z,52.00
2018-04-22T19:08:29.073Z,52.84
2018-04-22T19:10:57.448Z,52.76
2018-04-22T19:14:28.493Z,52.69
2018-04-22T19:16:58.094Z,52.55
2018-04-22T19:19:26.543Z,53.47
2018-04-22T19:21:54.888Z,53.52
2018-04-22T19:24:23.246Z,52.83
2018-04-22T19:26:51.644Z,52.79
2018-04-22T19:29:19.992Z,52.49
2018-04-22T19:31:48.376Z,52.01
2018-04-22T19:34:16.671Z,52.34
2018-04-22T19:36:45.019Z,52.43
2018-04-22T19:39:13.356Z,52.83
2018-04-22T19:41:41.717Z,52.70
2018-04-22T19:44:10.439Z,53.40
2018-04-22T19:46:38.839Z,52.98
2018-04-22T19:49:07.190Z,53.72
2018-04-22T19:51:35.574Z,54.22
2018-04-22T19:54:04.090Z,55.23
2018-04-22T19:56:32.703Z,56.19
2018-04-22T19:59:01.013Z,54.96
2018-04-22T20:01:29.409Z,55.61
2018-04-22T20:03:58.191Z,55.55
2018-04-22T20:06:26.527Z,57.07
2018-04-22T20:08:54.849Z,64.31
2018-04-22T20:11:23.240Z,64.55
2018-04-22T20:13:51.547Z,66.41
2018-04-22T20:16:19.879Z,64.42
2018-04-22T20:18:48.177Z,68.83
2018-04-22T20:21:16.832Z,67.85
2018-04-22T20:23:45.132Z,67.88
2018-04-22T20:26:13.748Z,69.78
2018-04-22T20:28:42.434Z,71.15
2018-04-22T20:31:13.428Z,68.03
2018-04-22T20:33:42.359Z,71.77
2018-04-22T20:36:10.680Z,71.42
2018-04-22T20:38:39.020Z,71.27
2018-04-22T20:42:10.185Z,71.64
2018-04-22T20:44:38.567Z,71.49
2018-04-22T20:47:06.992Z,70.03
2018-04-22T20:49:35.298Z,71.59
2018-04-22T20:52:03.743Z,72.56
2018-04-22T20:54:32.051Z,72.86
2018-04-22T20:57:00.511Z,74.42
2018-04-22T20:59:28.930Z,74.93
2018-04-22T21:01:57.292Z,73.03
2018-04-22T21:04:25.600Z,69.40
2018-04-22T21:06:53.935Z,65.50
2018-04-22T21:09:22.265Z,58.46
2018-04-22T21:11:50.660Z,57.30
2018-04-22T21:14:19.235Z,60.60
2018-04-22T21:16:47.579Z,58.01
2018-04-22T21:19:15.859Z,58.73
2018-04-22T21:21:44.180Z,56.02
2018-04-22T21:24:12.471Z,56.33
2018-04-22T21:26:40.844Z,56.17
2018-04-22T21:29:09.414Z,56.81
2018-04-22T21:31:37.836Z,56.56
2018-04-22T21:34:07.554Z,56.20
2018-04-22T21:36:36.541Z,58.30
2018-04-22T21:39:05.473Z,57.28
2018-04-22T21:41:33.792Z,59.65
2018-04-22T21:44:02.181Z,57.33
2018-04-22T21:46:30.808Z,55.75
2018-04-22T21:48:59.127Z,55.05
2018-04-22T21:51:30.912Z,55.35
2018-04-22T21:54:05.867Z,54.92
2018-04-22T21:56:34.604Z,55.81
2018-04-22T21:59:03.564Z,57.03
2018-04-22T22:01:31.986Z,56.21
2018-04-22T22:04:00.356Z,55.53
2018-04-22T22:06:28.701Z,56.38
2018-04-22T22:08:57.029Z,56.42
2018-04-22T22:11:25.452Z,58.02
2018-04-22T22:13:53.772Z,60.24
2018-04-22T22:16:22.422Z,61.08
2018-04-22T22:18:50.820Z,61.76
2018-04-22T22:21:19.588Z,63.07
2018-04-22T22:23:47.911Z,64.46
2018-04-22T22:26:16.266Z,64.86
2018-04-22T22:28:44.604Z,65.32
2018-04-22T22:31:13.020Z,68.02
2018-04-22T22:33:41.315Z,69.08
2018-04-22T22:36:09.781Z,67.35
2018-04-22T22:38:38.085Z,68.37
2018-04-22T22:41:06.417Z,66.66
2018-04-22T22:43:34.708Z,66.84
2018-04-22T22:46:03.015Z,69.36
2018-04-22T22:48:31.330Z,70.47
2018-04-22T22:51:00.112Z,68.37
2018-04-22T22:53:28.698Z,69.72
2018-04-22T22:55:57.528Z,68.39
2018-04-22T22:58:25.827Z,69.72
2018-04-22T23:00:54.160Z,72.87
2018-04-22T23:03:22.439Z,75.03
2018-04-22T23:05:50.824Z,74.76
2018-04-22T23:08:19.163Z,73.79
2018-04-22T23:10:47.487Z,73.36
2018-04-22T23:13:15.795Z,73.14
2018-04-22T23:15:44.140Z,72.15
2018-04-22T23:18:12.456Z,73.58
2018-04-22T23:20:40.803Z,72.46
2018-04-22T23:23:09.160Z,72.44
2018-04-22T23:25:37.564Z,72.25
2018-04-22T23:28:05.895Z,71.75
2018-04-22T23:30:34.246Z,71.02
2018-04-22T23:33:02.549Z,71.15
2018-04-22T23:35:30.940Z,70.63
2018-04-22T23:38:00.560Z,71.17
2018-04-22T23:40:28.892Z,71.10
2018-04-22T23:42:57.200Z,71.78
2018-04-22T23:45:25.511Z,71.83
2018-04-22T23:47:53.847Z,72.19
2018-04-22T23:50:22.488Z,72.39
2018-04-22T23:52:50.810Z,72.36
2018-04-22T23:55:19.164Z,72.48
2018-04-22T23:57:47.495Z,72.45
